»·PEaware :: N24AS KAPA-KEGE

N24AS :: KAPA-KEGE

FLIGHT INFORMATION

Flight Status: Arrived
Operator: Privately registered:
United States
More flights under this callsign
Pilot: Andrew S. (20703)
Aircraft: SOCATA TBM-900
(TBM9)
More flights by this aircraft type
Origin: KAPA Centennial
United States
Destination: KEGE Eagle Co Regl
United States
More flights between these airports :: More routes between these airports
Route: ROCKI4 RLG
File this flight plan on PilotEdge
Remarks:
Altitude:
(Current/Filed)
16,000ft
Speed:
(Current/Filed)
325kts
Departed: 01-Apr-19 08:24 PM
Arrived: 01-Apr-19 08:58 PM
Distance/Time
Traveled:
96nm/0:33
Distance/Time
To Go:
Arrived

Flight Plot

Page will automatically refresh every two minutes.


Map Options




Map Legend


Flown Route
Filed Route
Departure Airport
Arrival Airport
Navaid (VOR, NDB)
Fix

Horizontal Profiles

Position Reports

Time Latitude Longitude Heading Altitude Ground
Speed
01-Apr-19 20:07 39.577775 -104.848151 358 5884ft 0kts
01-Apr-19 20:08 39.577775 -104.848151 358 5884ft 0kts
01-Apr-19 20:09 39.577775 -104.848151 358 5884ft 0kts
01-Apr-19 20:10 39.577775 -104.848151 358 5884ft 0kts
01-Apr-19 20:11 39.577775 -104.848151 358 5884ft 0kts
01-Apr-19 20:12 39.577775 -104.848151 358 5884ft 0kts
01-Apr-19 20:13 39.577775 -104.848151 358 5884ft 0kts
01-Apr-19 20:14 39.577775 -104.848151 358 5884ft 0kts
01-Apr-19 20:15 39.577775 -104.848151 358 5884ft 0kts
01-Apr-19 20:16 39.577256 -104.849657 224 5884ft 8kts
01-Apr-19 20:17 39.571928 -104.849472 178 5884ft 22kts
01-Apr-19 20:18 39.567572 -104.849286 175 5884ft 12kts
01-Apr-19 20:19 39.560866 -104.848973 177 5884ft 32kts
01-Apr-19 20:20 39.556684 -104.848857 256 5884ft 0kts
01-Apr-19 20:21 39.556677 -104.849902 270 5884ft 9kts
01-Apr-19 20:22 39.557331 -104.850238 359 5884ft 17kts
01-Apr-19 20:23 39.587374 -104.851567 0 7194ft 137kts
01-Apr-19 20:24 39.634766 -104.851031 0 7986ft 206kts
01-Apr-19 20:25 39.675959 -104.891780 307 8914ft 181kts
01-Apr-19 20:26 39.699296 -104.935139 307 10855ft 137kts
01-Apr-19 20:27 39.722481 -104.975070 307 12101ft 139kts
01-Apr-19 20:28 39.745003 -105.011409 307 14770ft 122kts
01-Apr-19 20:29 39.766320 -105.055368 299 16024ft 188kts
01-Apr-19 20:30 39.797382 -105.126477 298 15989ft 234kts
01-Apr-19 20:31 39.830888 -105.203711 298 15982ft 242kts
01-Apr-19 20:32 39.864921 -105.282299 298 15984ft 247kts
01-Apr-19 20:33 39.899604 -105.362585 298 15980ft 249kts
01-Apr-19 20:34 39.934552 -105.442748 298 16003ft 250kts
01-Apr-19 20:35 39.969828 -105.523211 298 16002ft 251kts
01-Apr-19 20:36 40.005592 -105.604674 298 16030ft 251kts
01-Apr-19 20:37 40.039990 -105.686263 283 16008ft 254kts
01-Apr-19 20:38 40.026839 -105.777958 267 16037ft 255kts
01-Apr-19 20:39 40.022998 -105.871805 269 16035ft 255kts
01-Apr-19 20:40 40.019807 -105.965914 269 16035ft 255kts
01-Apr-19 20:41 40.016668 -106.059727 268 16030ft 256kts
01-Apr-19 20:42 40.013227 -106.155337 267 16028ft 260kts
01-Apr-19 20:43 40.009775 -106.250974 267 16017ft 260kts
01-Apr-19 20:44 40.006146 -106.347144 265 15555ft 263kts
01-Apr-19 20:45 39.961483 -106.424238 228 14628ft 258kts
01-Apr-19 20:46 39.912183 -106.493244 208 13976ft 256kts
01-Apr-19 20:47 39.846499 -106.522914 199 14005ft 240kts
01-Apr-19 20:48 39.783050 -106.548461 199 13998ft 233kts
01-Apr-19 20:49 39.730031 -106.580685 238 13993ft 189kts
01-Apr-19 20:50 39.704478 -106.639311 256 13991ft 184kts
01-Apr-19 20:51 39.686349 -106.706185 249 12759ft 178kts
01-Apr-19 20:52 39.668736 -106.764503 249 10667ft 155kts
01-Apr-19 20:53 39.656533 -106.807212 257 8961ft 106kts
01-Apr-19 20:54 39.650462 -106.844036 259 8179ft 111kts
01-Apr-19 20:55 39.646579 -106.881128 258 7049ft 104kts
01-Apr-19 20:56 39.643154 -106.911679 259 6548ft 44kts
01-Apr-19 20:57 39.641729 -106.915680 145 6548ft 3kts
01-Apr-19 20:58 39.640980 -106.915597 174 6548ft 0kts
01-Apr-19 20:59 39.640980 -106.915597 174 6548ft 0kts

Navigation Log

Ident Type
Flight plan parsing failed, navigation log unavailable